Hovedside
METAR-TAF:

METAR-TAF

Lufthavner :

Springbok, Sør-Afrika

breddegrad: 29-40S, lengdegrad: 17-53E, høyde over havet: 1006 m

Gjeldene værobservasjon

Denne rapporten ble laget for 16 timer og 43 minutter siden, klokken 08:53 UTC
Vind 11 kt fra Nord
Temperatur 18°C
Luftfuktighet 37%
Trykk 1026 hPa
Sikt 10 km eller mer
ingen skyer under 1500 m og ingen bygeskyer

METAR: FASB 130853Z 01011KT CAVOK 18/03 Q1026

Tid: 03:36 (01:36 UTC)


TAF: fraværende

Værobservasjoner og værvarsel for over 4000 flyplasser (METAR- og TAF-rapporter).

Tilgjengelige stasjoner er representert av de røde og gule prikkene på kartet.

Hold musepekeren over prikken for å se navnet på stasjonen.

Klikk så for å se værobservasjoner og -varsler.

For å forandre kartet kan du klikke på den grønne knappen med svart kryss for å zoome inn, på den grønne knappen med strek for å zoome ut, eller på de grønne pilene for å se tilstøtende kart.


METAR-TAF: